메인 페이지
METAR-TAF:

METAR-TAF

공항 :

바타, 적도 기니

위도: 1-54-15N, 경도: 9-48-15E, 고도: 4m

현재 날씨관측

예보는 41분 전, 17:00시(UTC)에 발표되었습니다.
11kt
온도 27°C
습도 100%
기압 1011 hPa
시정: 6000m
고도 800ft 상공 구름 많음
고도 1800ft 상공 구름 조금, 적란운.
뇌우, 약한비

METAR: FGBT 311700Z 26011KT 6000 -TSRA BKN008 FEW018CB 27/27 Q1011

시각: 18:41 (17:41 UTC)

예보

예보는 41분 전, 17:00시(UTC)에 발표되었습니다.
예보 대상 시간: 31일 18시부터 01일 18시까지 (UTC)
남서6kt
시정 10km 이상
고도 1000ft 상공 구름 보통
일시적
31일 18시부터 01일 02시까지 (UTC)
시정: 4000m
고도 1000ft 상공 구름 많음
고도 2000ft 상공 구름 조금, 적란운.
뇌우, 비
일시적
01일 10시부터 01일 18시까지 (UTC)
고도 1000ft 상공 구름 많음
고도 2000ft 상공 구름 조금, 적란운.
뇌우

TAF: FGBT 311700Z 3118/0118 22006KT 9999 SCT010 TEMPO 3118/0102 4000 TSRA BKN010 FEW020CB TEMPO 0110/0118 TS BKN010 FEW020CB

4,000개 이상의 공항 관측 자료 및 예보 (METAR 및 TAF 보고).

지도상에서 검색 가능한 기상관측소가 노란 점과 빨간 점으로 표시되어 있습니다.

기상관측소 명을 보려면 표시 위로 마우스를 이동하세요.

날씨 관측과 예보를 보려면 클릭하세요.

지도 변경 : 확대하려면 엑스 표시가 있는 녹색 버튼, 축소하려면 빼기 표시가 있는 녹색 버튼, 다음 페이지의 지도를 보려면 녹색 화살표를 클릭하세요.


METAR-TAF: